Richmond, VA (23294)

3:31 AM EST on December 20, 2014 (GMT -0500)
Courtney Farm | Change Station
CLOSE
Current Station
Personal Weather Station
Location: Glen Allen, VA
Elevation: 276 ft
Nearby Weather Stations

Elev 276 ft 37.65 °N, 77.52 °W | Updated 1 second ago

Clear
Clear
27.7 °F
Feels Like 28 °F
N
0.7
Wind Variable Wind from North
Gusts 0.7 mph

Today
High -- | Low -- °F
--% Chance of Precip.
Yesterday
High -- | Low -- °F
Precip. -- in
7:20 AM 4:54 PM
Waning Crescent, 4% visible
Pressure 30.29 in
Visibility 10.0 miles
Clouds Few 20000 ft
Scattered Clouds 30000 ft
Windchill 28 °F
Dew Point 8 °F
Humidity 42%
Rainfall 0.00 in
Snow Depth Not available.
UV 0 out of 12
Pollen .10 out of 12
Air Quality Not available.
Flu Activity Not available.
METAR KRIC 200754Z 00000KT 10SM FEW200 SCT300 M01/M06 A3027 RMK AO2 SLP257 T10111061

More Conditions Fewer Conditions

Pressure 30.29 in
Visibility 10.0 miles
Clouds Few 20000 ft
Scattered Clouds 30000 ft
Windchill 28 °F
Dew Point 8 °F
Humidity 42%
Rainfall 0.00 in
Snow Depth Not available.
UV 0 out of 12
Pollen .10 out of 12
Air Quality Not available.
Flu Activity Not available.
METAR KRIC 200754Z 00000KT 10SM FEW200 SCT300 M01/M06 A3027 RMK AO2 SLP257 T10111061

More Conditions Fewer Conditions

10-Day Weather Forecast

Almanac

Astronomy

Dec. 20, 2014 Rise Set
Actual Time
Civil Twilight
Nautical Twilight
Astronomical Twilight
Moon
Length of Visible Light
Length of Day
Tomorrow will be .
, % of the Moon is Illuminated

Today's Extremes

State Highs State Lows

Community

WunderPhotos

Upload Photos

1,779,146 photos uploaded!

WunderBlogs® & News

Nearby

Air Quality

  Air Quality AQ Index Pollutant
Not available.

Snow Depth

Station Depth Elevation

Earthquake Activity

City Distance Mag. Time & Date
Minimum magnitude displayed is 2.5.

Coastal Water Temperatures

Place Temperature

Nearby Weather Stations